Air Navigation Services of Czech Republic
Airport: LKCV Updated:  22.06.2017 23:39:12  UTC
 SPECI LKCV 22.06. 23:36 ...
SPECI LKCV 222336Z 17008KT 9999 VCTS FEW040CB BKN130 18/17 Q1010 =
 METAR LKCV 22.06. 23:00 ...
METAR LKCV 222300Z 10008KT 9999 FEW042 BKN120 17/17 Q1010 NOSIG=
 TAF LKCV 22.06. 17:00 ...
TAF LKCV 221700Z 2218/2318 24008KT CAVOK      TEMPO 2218/2311 24015G25KT 6000 SHRA SCT035TCU      TEMPO 2218/2304 24018G30KT 3000 TSRA BKN030CB      TEMPO 2302/2306 5000 BR SCT010 BKN020      BECMG 2304/2305 31010KT      TEMPO 2305/2315 31018G28KT=